createdAt,value
2023-02-16T00:01:54.705Z,22.81
2023-02-16T00:06:56.195Z,23.00
2023-02-16T00:12:15.929Z,22.61
2023-02-16T00:17:17.306Z,22.81
2023-02-16T00:22:18.738Z,22.79
2023-02-16T00:27:20.111Z,22.82
2023-02-16T00:32:21.516Z,22.83
2023-02-16T00:37:22.903Z,22.70
2023-02-16T00:42:26.752Z,22.81
2023-02-16T00:47:37.293Z,22.90
2023-02-16T00:52:42.576Z,22.84
2023-02-16T00:58:00.118Z,22.84
2023-02-16T01:03:02.881Z,22.74
2023-02-16T01:08:28.250Z,22.69
2023-02-16T01:13:29.710Z,22.86
2023-02-16T01:18:31.084Z,22.90
2023-02-16T01:23:32.527Z,22.81
2023-02-16T01:28:34.442Z,22.80
2023-02-16T01:33:35.826Z,22.68
2023-02-16T01:38:37.208Z,22.83
2023-02-16T01:43:46.669Z,22.88
2023-02-16T01:48:48.048Z,22.72
2023-02-16T01:54:27.507Z,22.54
2023-02-16T01:59:44.173Z,22.62
2023-02-16T02:05:18.610Z,22.87
2023-02-16T02:10:33.367Z,22.64
2023-02-16T02:15:34.850Z,22.48
2023-02-16T02:21:09.275Z,22.84
2023-02-16T02:26:19.796Z,22.65
2023-02-16T02:31:30.199Z,22.52
2023-02-16T02:36:51.907Z,22.44
2023-02-16T02:42:08.849Z,22.61
2023-02-16T02:47:10.287Z,22.71
2023-02-16T02:52:11.677Z,22.61
2023-02-16T02:57:39.677Z,22.40
2023-02-16T03:02:41.111Z,22.64
2023-02-16T03:07:48.870Z,22.72
2023-02-16T03:12:50.318Z,22.68
2023-02-16T03:18:10.775Z,22.65
2023-02-16T03:23:30.603Z,22.44
2023-02-16T03:28:50.726Z,22.40
2023-02-16T03:33:54.453Z,22.51
2023-02-16T03:38:55.996Z,22.55
2023-02-16T03:43:57.379Z,22.31
2023-02-16T03:48:58.763Z,22.60
2023-02-16T03:54:00.179Z,22.40
2023-02-16T03:59:01.580Z,22.46
2023-02-16T04:04:03.023Z,22.39
2023-02-16T04:09:04.394Z,22.27
2023-02-16T04:14:05.778Z,22.47
2023-02-16T04:19:07.792Z,22.48
2023-02-16T04:24:09.162Z,22.32
2023-02-16T04:29:10.593Z,22.27
2023-02-16T04:34:11.979Z,22.30
2023-02-16T04:39:13.367Z,22.53
2023-02-16T04:44:14.756Z,22.17
2023-02-16T04:49:16.162Z,22.39
2023-02-16T04:54:17.543Z,22.33
2023-02-16T04:59:18.922Z,22.49
2023-02-16T05:04:20.432Z,22.34
2023-02-16T05:09:21.823Z,22.17
2023-02-16T05:14:42.663Z,22.22
2023-02-16T05:19:46.201Z,22.29
2023-02-16T05:24:47.746Z,22.12
2023-02-16T05:29:49.232Z,22.24
2023-02-16T05:34:50.700Z,22.21
2023-02-16T05:39:52.790Z,22.26
2023-02-16T05:44:54.187Z,22.25
2023-02-16T05:49:55.586Z,22.07
2023-02-16T05:54:56.965Z,22.21
2023-02-16T05:59:58.333Z,22.26
2023-02-16T06:04:59.729Z,22.39
2023-02-16T06:10:01.118Z,22.36
2023-02-16T06:15:04.080Z,22.15
2023-02-16T06:20:06.126Z,22.14
2023-02-16T06:25:07.550Z,22.24
2023-02-16T06:30:09.230Z,22.58
2023-02-16T06:35:10.670Z,22.24
2023-02-16T06:40:15.395Z,22.23
2023-02-16T06:45:16.797Z,22.33
2023-02-16T06:50:18.962Z,22.43
2023-02-16T06:55:20.347Z,22.35
2023-02-16T07:00:24.437Z,22.21
2023-02-16T07:05:25.869Z,22.36
2023-02-16T07:10:34.648Z,22.42
2023-02-16T07:15:41.678Z,22.36
2023-02-16T07:20:43.071Z,22.33
2023-02-16T07:25:44.463Z,22.16
2023-02-16T07:30:45.884Z,22.52
2023-02-16T07:35:47.249Z,22.58
2023-02-16T07:40:48.631Z,22.40
2023-02-16T07:45:50.086Z,22.36
2023-02-16T07:50:51.483Z,22.59
2023-02-16T07:55:52.859Z,23.21
2023-02-16T08:01:00.437Z,23.59
2023-02-16T08:06:02.805Z,23.69
2023-02-16T08:11:10.789Z,23.81
2023-02-16T08:16:14.028Z,24.03
2023-02-16T08:21:17.252Z,24.15
2023-02-16T08:26:18.791Z,23.95
2023-02-16T08:31:23.430Z,23.76
2023-02-16T08:36:32.157Z,24.04
2023-02-16T08:41:36.007Z,23.81
2023-02-16T08:46:41.359Z,24.16
2023-02-16T08:51:47.445Z,24.10
2023-02-16T08:56:49.509Z,23.96
2023-02-16T09:01:50.931Z,23.88
2023-02-16T09:06:52.355Z,24.17
2023-02-16T09:11:53.744Z,24.16
2023-02-16T09:16:55.157Z,24.31
2023-02-16T09:21:56.683Z,24.08
2023-02-16T09:26:58.057Z,24.40
2023-02-16T09:31:59.572Z,24.46
2023-02-16T09:37:00.971Z,24.45
2023-02-16T09:42:37.960Z,24.14
2023-02-16T09:47:44.880Z,24.66
2023-02-16T09:53:08.552Z,24.43
2023-02-16T09:58:21.464Z,24.67
2023-02-16T10:03:26.549Z,24.64
2023-02-16T10:08:53.118Z,24.82
2023-02-16T10:13:55.097Z,24.52
2023-02-16T10:18:56.510Z,24.54
2023-02-16T10:24:00.967Z,24.79
2023-02-16T10:29:20.558Z,24.74
2023-02-16T10:34:40.408Z,24.74
2023-02-16T10:40:05.585Z,24.87
2023-02-16T10:45:06.957Z,24.99
2023-02-16T10:50:15.776Z,24.96
2023-02-16T10:55:17.164Z,25.00
2023-02-16T11:00:19.264Z,24.91
2023-02-16T11:05:26.998Z,25.21
2023-02-16T11:10:42.023Z,25.21
2023-02-16T11:15:43.432Z,25.06
2023-02-16T11:20:45.009Z,25.16
2023-02-16T11:26:08.680Z,25.31
2023-02-16T11:31:33.036Z,25.45
2023-02-16T11:36:37.491Z,25.38
2023-02-16T11:41:38.942Z,25.55
2023-02-16T11:46:40.495Z,25.55
2023-02-16T11:51:41.910Z,25.52
2023-02-16T11:56:44.132Z,25.71
2023-02-16T12:02:04.540Z,25.56
2023-02-16T12:07:30.388Z,25.83
2023-02-16T12:12:34.663Z,25.48
2023-02-16T12:18:20.924Z,25.77
2023-02-16T12:23:43.772Z,25.90
2023-02-16T12:29:01.313Z,25.85
2023-02-16T12:34:28.460Z,25.79
2023-02-16T12:39:31.867Z,25.77
2023-02-16T12:44:37.868Z,25.86
2023-02-16T12:49:45.096Z,26.02
2023-02-16T12:54:49.336Z,25.97
2023-02-16T12:59:56.514Z,25.95
2023-02-16T13:05:55.895Z,25.97
2023-02-16T13:11:08.354Z,26.19
2023-02-16T13:16:43.924Z,26.15
2023-02-16T13:21:53.961Z,26.30
2023-02-16T13:27:37.310Z,26.46
2023-02-16T13:32:48.595Z,26.41
2023-02-16T13:38:26.914Z,26.71
2023-02-16T13:43:37.507Z,26.44
2023-02-16T13:48:46.365Z,26.25
2023-02-16T13:53:59.108Z,26.26
2023-02-16T13:59:29.827Z,26.17
2023-02-16T14:04:31.082Z,26.11
2023-02-16T14:09:38.674Z,26.17
2023-02-16T14:14:44.284Z,25.95
2023-02-16T14:20:05.060Z,26.00
2023-02-16T14:25:27.368Z,26.16
2023-02-16T14:30:36.231Z,25.91
2023-02-16T14:35:38.947Z,25.78
2023-02-16T14:40:55.360Z,25.83
2023-02-16T14:46:38.508Z,25.87
2023-02-16T14:52:10.966Z,25.93
2023-02-16T14:57:33.669Z,25.79
2023-02-16T15:02:37.875Z,25.81
2023-02-16T15:07:39.272Z,25.86
2023-02-16T15:12:41.075Z,26.53
2023-02-16T15:17:48.419Z,26.58
2023-02-16T15:22:55.186Z,26.20
2023-02-16T15:28:00.669Z,26.84
2023-02-16T15:33:04.141Z,27.09
2023-02-16T15:38:25.470Z,27.00
2023-02-16T15:43:43.376Z,27.10
2023-02-16T15:48:45.831Z,26.91
2023-02-16T15:54:15.433Z,26.62
2023-02-16T15:59:38.409Z,26.59
2023-02-16T16:04:50.102Z,26.19
2023-02-16T16:09:51.964Z,26.20
2023-02-16T16:14:55.886Z,26.02
2023-02-16T16:19:58.226Z,25.70
2023-02-16T16:25:00.018Z,25.76
2023-02-16T16:30:28.209Z,25.28
2023-02-16T16:35:40.503Z,25.21
2023-02-16T16:40:41.887Z,25.71
2023-02-16T16:45:51.412Z,25.89
2023-02-16T16:51:11.855Z,26.14
2023-02-16T16:56:16.430Z,26.39
2023-02-16T17:01:18.725Z,26.00
2023-02-16T17:06:20.299Z,26.21
2023-02-16T17:11:28.920Z,26.41
2023-02-16T17:16:32.505Z,26.12
2023-02-16T17:21:33.899Z,26.08
2023-02-16T17:26:35.489Z,26.06
2023-02-16T17:31:36.911Z,25.93
2023-02-16T17:36:38.672Z,26.02
2023-02-16T17:41:40.053Z,25.97
2023-02-16T17:46:41.434Z,25.88
2023-02-16T17:51:42.853Z,25.80
2023-02-16T17:56:44.428Z,25.81
2023-02-16T18:01:45.851Z,25.49
2023-02-16T18:06:47.231Z,25.37
2023-02-16T18:11:48.618Z,25.35
2023-02-16T18:16:53.214Z,25.10
2023-02-16T18:21:54.765Z,25.05
2023-02-16T18:26:56.162Z,25.13
2023-02-16T18:31:57.781Z,24.82
2023-02-16T18:36:59.181Z,24.84
2023-02-16T18:42:00.565Z,24.69
2023-02-16T18:47:01.997Z,24.79
2023-02-16T18:52:03.406Z,24.86
2023-02-16T18:57:04.783Z,25.07
2023-02-16T19:02:06.243Z,24.62
2023-02-16T19:07:07.859Z,24.79
2023-02-16T19:12:09.238Z,24.81
2023-02-16T19:17:10.614Z,24.59
2023-02-16T19:22:11.990Z,24.57
2023-02-16T19:27:13.355Z,24.73
2023-02-16T19:32:14.858Z,24.56
2023-02-16T19:37:16.260Z,24.58
2023-02-16T19:42:17.638Z,24.30
2023-02-16T19:47:19.014Z,24.39
2023-02-16T19:52:20.419Z,24.62
2023-02-16T19:57:21.980Z,24.58
2023-02-16T20:02:23.462Z,24.56
2023-02-16T20:07:24.875Z,24.50
2023-02-16T20:12:28.405Z,24.60
2023-02-16T20:17:29.783Z,24.83
2023-02-16T20:22:31.167Z,24.90
2023-02-16T20:27:32.592Z,24.90
2023-02-16T20:32:33.965Z,25.46
2023-02-16T20:37:35.385Z,25.78
2023-02-16T20:42:36.767Z,26.08
2023-02-16T20:47:38.217Z,25.98
2023-02-16T20:52:39.872Z,26.10
2023-02-16T20:57:41.247Z,26.31
2023-02-16T21:02:42.789Z,26.35
2023-02-16T21:07:44.198Z,26.28
2023-02-16T21:12:46.415Z,26.38
2023-02-16T21:17:47.918Z,26.37
2023-02-16T21:22:49.373Z,26.45
2023-02-16T21:27:50.759Z,26.38
2023-02-16T21:32:52.144Z,26.19
2023-02-16T21:37:53.560Z,26.12
2023-02-16T21:42:54.952Z,25.97
2023-02-16T21:48:14.568Z,25.86
2023-02-16T21:53:15.979Z,25.72
2023-02-16T21:58:17.561Z,25.86
2023-02-16T22:03:20.245Z,26.07
2023-02-16T22:08:21.640Z,26.25
2023-02-16T22:13:23.012Z,26.45
2023-02-16T22:18:24.394Z,26.81
2023-02-16T22:23:25.758Z,26.76
2023-02-16T22:28:27.187Z,26.79
2023-02-16T22:33:28.561Z,26.87
2023-02-16T22:38:29.963Z,27.15
2023-02-16T22:43:31.344Z,27.12
2023-02-16T22:48:32.733Z,27.26
2023-02-16T22:53:34.280Z,27.42
2023-02-16T22:58:35.904Z,27.29
2023-02-16T23:03:37.295Z,27.21
2023-02-16T23:08:38.667Z,27.26
2023-02-16T23:13:40.046Z,27.57
2023-02-16T23:18:41.573Z,27.47
2023-02-16T23:23:43.049Z,27.52
2023-02-16T23:28:44.475Z,27.66
2023-02-16T23:33:45.849Z,27.71
2023-02-16T23:38:47.216Z,27.72
2023-02-16T23:43:48.587Z,27.96
2023-02-16T23:48:50.060Z,28.01
2023-02-16T23:53:51.474Z,27.76
2023-02-16T23:58:52.875Z,27.80
